Shekhupura, Pakistan
Current Conditions -  °F | °C
As of 7:25 AM on Sunday 21 Dec 2014 (Local Time) from OPLA Reporting Station
Moderate Fog Moderate Fog  
Wind Chill: 39°   Ceiling: Unl
Heat Index: 39°   Visibility: 0.03mi
Dew Point: 39°   Wind: 3mph
Humidity: 100%   Direction: 110°ESE
Pressure: 30.03"   Gusts: NA
Location:  31.72°N, 73.98°E
Report Text: OPLA 210225Z 11003KT 0050 FG VV/// 04/04 Q1017
Loading
Personal Weather Stations






























Interactive Weather Map New forecast layout! Learn more

10-Day Weather Forecast

Advertisements
Track Severe Weather on mobile